Time;durP1;ratioP1;P1;durP2;ratioP2;P2;SDS_P1;SDS_P2;PMS_P1;PMS_P2;Temp;Humidity;BMP_temperature;BMP_pressure;BME280_temperature;BME280_humidity;BME280_pressure;Samples;Min_cycle;Max_cycle;Signal;HPM_P1;HPM_P2
2021/12/07 00:00:12;;;;;;;35.17;26.87;;;;;;;;;;5058054;28;24457;-57
2021/12/07 00:02:38;;;;;;;33.75;26.08;;;;;;;;;;5057651;28;24403;-57
2021/12/07 00:05:03;;;;;;;32.50;25.23;;;;;;;;;;5066202;28;25369;-57
2021/12/07 00:07:29;;;;;;;31.33;25.00;;;;;;;;;;5058118;28;24430;-57
2021/12/07 00:09:54;;;;;;;31.90;24.75;;;;;;;;;;5066757;28;24537;-56
2021/12/07 00:12:19;;;;;;;30.80;24.27;;;;;;;;;;5059128;28;24423;-57
2021/12/07 00:14:44;;;;;;;36.55;26.20;;;;;;;;;;5054621;28;25256;-57
2021/12/07 00:17:10;;;;;;;32.33;25.13;;;;;;;;;;5056278;28;24414;-56
2021/12/07 00:19:35;;;;;;;32.20;24.90;;;;;;;;;;5074567;28;24991;-57
2021/12/07 00:22:02;;;;;;;30.38;22.70;;;;;;;;;;5079916;28;24402;-57
2021/12/07 00:24:28;;;;;;;31.67;23.65;;;;;;;;;;5082436;28;24464;-57
2021/12/07 00:26:53;;;;;;;28.60;22.08;;;;;;;;;;5045975;28;24726;-57
2021/12/07 00:29:18;;;;;;;30.00;23.13;;;;;;;;;;5060194;28;24862;-57
2021/12/07 00:31:52;;;;;;;27.67;21.00;;;;;;;;;;5051460;28;24426;-57
2021/12/07 00:34:39;;;;;;;26.45;20.75;;;;;;;;;;5068639;28;24458;-57
2021/12/07 00:37:04;;;;;;;27.20;21.20;;;;;;;;;;5070460;28;24452;-57
2021/12/07 00:39:29;;;;;;;24.73;20.23;;;;;;;;;;5062495;28;24410;-56
2021/12/07 00:41:55;;;;;;;26.27;20.07;;;;;;;;;;5056115;28;24548;-56
2021/12/07 00:44:21;;;;;;;25.97;20.90;;;;;;;;;;5062038;28;24701;-57
2021/12/07 00:46:46;;;;;;;27.77;21.27;;;;;;;;;;5059885;28;24505;-57
2021/12/07 00:49:11;;;;;;;27.80;20.30;;;;;;;;;;5051224;28;24429;-57
2021/12/07 00:51:37;;;;;;;27.80;22.13;;;;;;;;;;5061351;28;24426;-61
2021/12/07 00:54:03;;;;;;;32.10;22.10;;;;;;;;;;5068651;28;24427;-57
2021/12/07 00:56:28;;;;;;;25.80;20.33;;;;;;;;;;5059530;28;24881;-57
2021/12/07 00:58:54;;;;;;;26.77;20.20;;;;;;;;;;5045712;28;25034;-57
2021/12/07 01:01:19;;;;;;;24.63;18.67;;;;;;;;;;5060586;28;24529;-57
2021/12/07 01:03:45;;;;;;;26.30;21.30;;;;;;;;;;5072720;28;24664;-57
2021/12/07 01:06:21;;;;;;;26.10;20.50;;;;;;;;;;5068295;28;24994;-57
2021/12/07 01:24:53;;;;;;;25.67;20.60;;;;;;;;;;5065635;28;24531;-57
2021/12/07 01:27:20;;;;;;;23.25;19.70;;;;;;;;;;5060840;28;24419;-57
2021/12/07 01:29:48;;;;;;;25.27;21.00;;;;;;;;;;5070515;28;24773;-57
2021/12/07 01:32:28;;;;;;;26.83;20.57;;;;;;;;;;5055934;28;24459;-57
2021/12/07 01:37:53;;;;;;;26.13;20.05;;;;;;;;;;5054143;28;24488;-57
2021/12/07 01:43:11;;;;;;;27.25;20.90;;;;;;;;;;5056030;28;24488;-57
2021/12/07 02:01:56;;;;;;;26.27;19.23;;;;;;;;;;5058469;28;24419;-57
2021/12/07 02:04:21;;;;;;;24.73;18.55;;;;;;;;;;5058525;28;24815;-58
2021/12/07 02:06:46;;;;;;;23.00;18.30;;;;;;;;;;5059188;28;24434;-57
2021/12/07 02:09:12;;;;;;;25.57;19.60;;;;;;;;;;5071913;28;24453;-57
2021/12/07 02:11:44;;;;;;;22.35;17.95;;;;;;;;;;5068557;28;24414;-57
2021/12/07 02:14:16;;;;;;;24.08;19.85;;;;;;;;;;5058062;28;24442;-57
2021/12/07 02:16:49;;;;;;;25.85;20.50;;;;;;;;;;5058682;28;24772;-57
2021/12/07 02:19:14;;;;;;;25.50;19.83;;;;;;;;;;5060991;28;24447;-57
2021/12/07 02:21:40;;;;;;;25.30;19.97;;;;;;;;;;5054570;28;24964;-57
2021/12/07 02:24:05;;;;;;;22.53;18.40;;;;;;;;;;5060218;28;24993;-57
2021/12/07 02:26:30;;;;;;;27.60;21.67;;;;;;;;;;5062692;28;24449;-57
2021/12/07 02:28:57;;;;;;;23.73;18.30;;;;;;;;;;5060960;28;24418;-57
2021/12/07 02:31:22;;;;;;;22.95;18.00;;;;;;;;;;5067651;28;24425;-57
2021/12/07 02:33:47;;;;;;;23.37;18.80;;;;;;;;;;5062224;28;24438;-57
2021/12/07 02:36:12;;;;;;;22.30;18.70;;;;;;;;;;5063718;28;24410;-57
2021/12/07 02:38:38;;;;;;;24.47;18.80;;;;;;;;;;5059505;28;24437;-57
2021/12/07 02:41:04;;;;;;;23.77;18.50;;;;;;;;;;5056400;28;24488;-57
2021/12/07 02:43:29;;;;;;;23.37;18.53;;;;;;;;;;5058739;28;25091;-57
2021/12/07 02:45:54;;;;;;;22.03;17.60;;;;;;;;;;5060810;28;25003;-57
2021/12/07 02:48:21;;;;;;;27.10;21.77;;;;;;;;;;5063675;28;24414;-57
2021/12/07 02:50:46;;;;;;;22.67;18.20;;;;;;;;;;5060618;28;24505;-57
2021/12/07 02:53:12;;;;;;;21.60;17.60;;;;;;;;;;5058185;28;24546;-57
2021/12/07 02:55:37;;;;;;;23.40;17.50;;;;;;;;;;5061513;28;24870;-56
2021/12/07 02:58:02;;;;;;;23.48;18.85;;;;;;;;;;5061258;28;24411;-57
2021/12/07 03:00:35;;;;;;;22.83;18.20;;;;;;;;;;5050212;28;24833;-57
2021/12/07 03:03:06;;;;;;;22.40;18.10;;;;;;;;;;5056219;28;24398;-56
2021/12/07 03:26:55;;;;;;;23.63;19.10;;;;;;;;;;5057289;28;24435;-57
2021/12/07 03:29:20;;;;;;;23.20;18.88;;;;;;;;;;5052364;28;24442;-57
2021/12/07 03:31:45;;;;;;;24.77;18.73;;;;;;;;;;5062310;28;24414;-57
2021/12/07 03:34:11;;;;;;;24.63;19.30;;;;;;;;;;5061267;28;24942;-56
2021/12/07 03:36:36;;;;;;;26.27;20.47;;;;;;;;;;5062824;28;24452;-56
2021/12/07 03:39:03;;;;;;;25.40;19.52;;;;;;;;;;5059982;28;24832;-56
2021/12/07 03:41:28;;;;;;;28.60;21.63;;;;;;;;;;5050957;28;24425;-57
2021/12/07 03:43:53;;;;;;;26.67;20.65;;;;;;;;;;5071166;28;24505;-57
2021/12/07 03:46:19;;;;;;;26.48;20.58;;;;;;;;;;5055501;28;24465;-57
2021/12/07 03:48:44;;;;;;;24.50;19.58;;;;;;;;;;5062943;28;24426;-57
2021/12/07 03:51:09;;;;;;;24.90;19.90;;;;;;;;;;5058195;28;24414;-57
2021/12/07 03:53:34;;;;;;;29.58;22.48;;;;;;;;;;5061939;28;25035;-57
2021/12/07 03:56:00;;;;;;;29.97;22.70;;;;;;;;;;5052493;28;25048;-57
2021/12/07 03:58:26;;;;;;;27.83;21.10;;;;;;;;;;5062441;28;24558;-57
2021/12/07 04:00:51;;;;;;;28.53;21.13;;;;;;;;;;5060607;28;24472;-57
2021/12/07 04:03:17;;;;;;;28.40;21.70;;;;;;;;;;5074697;28;24410;-57
2021/12/07 04:05:49;;;;;;;25.93;19.80;;;;;;;;;;5056368;28;24456;-57
2021/12/07 04:08:17;;;;;;;28.63;20.90;;;;;;;;;;5058338;28;24426;-56
2021/12/07 04:10:42;;;;;;;25.40;20.20;;;;;;;;;;5061068;28;24510;-56
2021/12/07 04:13:08;;;;;;;28.63;19.77;;;;;;;;;;5077741;28;25072;-56
2021/12/07 04:15:33;;;;;;;28.20;20.80;;;;;;;;;;5065057;28;24406;-56
2021/12/07 04:17:58;;;;;;;27.87;21.07;;;;;;;;;;5069518;28;24967;-57
2021/12/07 04:20:23;;;;;;;27.53;20.53;;;;;;;;;;5065293;28;24419;-57
2021/12/07 04:22:49;;;;;;;29.03;20.70;;;;;;;;;;5060843;28;24546;-57
2021/12/07 04:25:15;;;;;;;25.83;20.17;;;;;;;;;;5066428;28;24522;-57
2021/12/07 04:27:40;;;;;;;29.90;21.38;;;;;;;;;;5056415;28;24498;-58
2021/12/07 04:30:07;;;;;;;29.07;21.60;;;;;;;;;;5059706;28;24527;-57
2021/12/07 04:32:33;;;;;;;28.17;20.63;;;;;;;;;;5060379;28;24419;-58
2021/12/07 04:34:58;;;;;;;28.40;20.13;;;;;;;;;;5052024;28;24475;-58
2021/12/07 04:37:23;;;;;;;28.58;20.92;;;;;;;;;;5051630;28;24407;-59
2021/12/07 04:39:48;;;;;;;27.77;20.70;;;;;;;;;;5048439;28;24511;-58
2021/12/07 04:42:13;;;;;;;30.40;20.90;;;;;;;;;;5057024;28;24434;-58
2021/12/07 04:44:46;;;;;;;28.80;20.40;;;;;;;;;;5059707;28;24988;-58
2021/12/07 04:47:22;;;;;;;23.45;18.42;;;;;;;;;;5059961;28;24418;-58
2021/12/07 04:50:18;;;;;;;27.05;21.48;;;;;;;;;;5055844;28;24407;-58
2021/12/07 04:58:06;;;;;;;26.95;20.77;;;;;;;;;;5060024;28;24857;-58
2021/12/07 05:00:31;;;;;;;26.85;19.58;;;;;;;;;;5059607;28;24506;-58
2021/12/07 05:03:01;;;;;;;26.45;19.10;;;;;;;;;;5059474;28;24402;-58
2021/12/07 05:05:31;;;;;;;27.43;19.60;;;;;;;;;;5062230;28;24419;-57
2021/12/07 05:07:59;;;;;;;28.45;20.02;;;;;;;;;;5059920;28;24506;-58
2021/12/07 05:10:34;;;;;;;26.67;19.83;;;;;;;;;;5060103;28;24419;-57
2021/12/07 05:18:08;;;;;;;27.13;20.13;;;;;;;;;;5062078;28;24410;-57
2021/12/07 05:34:42;;;;;;;25.98;20.52;;;;;;;;;;5062287;28;24774;-59
2021/12/07 05:39:50;;;;;;;25.83;21.10;;;;;;;;;;5060881;28;24417;-59
2021/12/07 05:42:15;;;;;;;28.65;21.80;;;;;;;;;;5043527;28;24775;-59
2021/12/07 05:44:40;;;;;;;26.47;20.50;;;;;;;;;;5046897;28;24414;-59
2021/12/07 05:47:06;;;;;;;23.80;18.70;;;;;;;;;;5063123;28;24429;-59
2021/12/07 05:49:31;;;;;;;25.57;20.80;;;;;;;;;;5062569;28;24426;-59
2021/12/07 05:51:56;;;;;;;26.23;20.90;;;;;;;;;;5060444;28;24772;-59
2021/12/07 05:54:21;;;;;;;25.83;20.65;;;;;;;;;;5063236;28;24462;-59
2021/12/07 05:56:47;;;;;;;26.27;19.80;;;;;;;;;;5059239;28;24417;-57
2021/12/07 05:59:12;;;;;;;28.55;22.17;;;;;;;;;;5060218;28;24960;-57
2021/12/07 06:01:38;;;;;;;26.30;21.90;;;;;;;;;;5062735;28;24431;-59
2021/12/07 06:04:03;;;;;;;26.45;20.35;;;;;;;;;;5062648;28;24514;-57
2021/12/07 06:06:28;;;;;;;26.93;21.00;;;;;;;;;;5061304;28;24426;-58
2021/12/07 06:08:53;;;;;;;27.40;21.15;;;;;;;;;;5052186;28;24514;-58
2021/12/07 06:11:21;;;;;;;26.00;19.70;;;;;;;;;;5057563;28;24451;-58
2021/12/07 06:13:47;;;;;;;25.63;20.02;;;;;;;;;;5060648;28;24785;-58
2021/12/07 06:16:14;;;;;;;24.60;19.70;;;;;;;;;;5059606;28;24434;-58
2021/12/07 06:18:40;;;;;;;25.60;20.20;;;;;;;;;;5060453;28;24745;-59
2021/12/07 06:21:05;;;;;;;25.08;19.25;;;;;;;;;;5076136;28;25008;-59
2021/12/07 06:23:30;;;;;;;23.63;19.43;;;;;;;;;;5078115;28;24437;-60
2021/12/07 06:25:57;;;;;;;26.33;20.20;;;;;;;;;;5073998;28;24425;-59
2021/12/07 06:28:22;;;;;;;24.63;19.10;;;;;;;;;;5053110;28;24407;-59
2021/12/07 06:30:48;;;;;;;24.63;20.02;;;;;;;;;;5057739;28;25198;-59
2021/12/07 06:33:15;;;;;;;26.48;20.33;;;;;;;;;;5073788;28;24888;-59
2021/12/07 06:35:40;;;;;;;24.27;19.42;;;;;;;;;;5060192;28;24499;-59
2021/12/07 06:38:06;;;;;;;28.27;21.90;;;;;;;;;;5058381;28;24454;-59
2021/12/07 06:40:31;;;;;;;24.93;20.87;;;;;;;;;;5060147;28;24426;-57
2021/12/07 06:42:59;;;;;;;26.93;21.27;;;;;;;;;;5057610;28;24411;-58
2021/12/07 06:45:25;;;;;;;24.55;19.45;;;;;;;;;;5060336;28;24899;-57
2021/12/07 06:47:50;;;;;;;25.98;21.10;;;;;;;;;;5066268;28;24430;-58
2021/12/07 06:50:15;;;;;;;27.90;21.30;;;;;;;;;;5057354;28;24794;-58
2021/12/07 06:52:40;;;;;;;25.13;20.15;;;;;;;;;;5057783;28;24446;-57
2021/12/07 06:55:06;;;;;;;27.87;21.50;;;;;;;;;;5058247;28;24998;-57
2021/12/07 06:57:31;;;;;;;27.57;21.93;;;;;;;;;;5055878;28;24414;-58
2021/12/07 06:59:57;;;;;;;25.07;18.90;;;;;;;;;;5056173;28;24423;-58
2021/12/07 07:02:22;;;;;;;23.70;19.90;;;;;;;;;;5052033;28;25216;-57
2021/12/07 07:04:47;;;;;;;23.95;20.10;;;;;;;;;;5059415;28;24410;-57
2021/12/07 07:07:12;;;;;;;23.63;18.30;;;;;;;;;;5054570;28;24434;-58
2021/12/07 07:09:37;;;;;;;24.55;19.77;;;;;;;;;;5057334;28;24445;-57
2021/12/07 07:12:03;;;;;;;25.00;19.80;;;;;;;;;;5048967;28;24525;-57
2021/12/07 07:14:28;;;;;;;27.10;19.80;;;;;;;;;;5057542;28;24425;-57
2021/12/07 07:16:53;;;;;;;28.42;20.83;;;;;;;;;;5058444;28;24415;-58
2021/12/07 07:19:18;;;;;;;24.53;19.43;;;;;;;;;;5050357;28;24537;-58
2021/12/07 07:21:44;;;;;;;26.93;20.40;;;;;;;;;;5054839;28;24480;-58
2021/12/07 07:24:09;;;;;;;27.83;21.03;;;;;;;;;;5040094;28;24399;-58
2021/12/07 07:26:34;;;;;;;27.00;20.20;;;;;;;;;;5045255;28;25014;-58
2021/12/07 07:28:59;;;;;;;26.67;20.00;;;;;;;;;;5057278;28;24489;-58
2021/12/07 07:31:24;;;;;;;24.20;19.70;;;;;;;;;;5053250;28;24446;-58
2021/12/07 07:33:51;;;;;;;24.43;19.50;;;;;;;;;;5045507;28;24445;-58
2021/12/07 07:36:49;;;;;;;26.02;19.52;;;;;;;;;;5051617;28;24452;-58
2021/12/07 07:39:14;;;;;;;25.58;19.80;;;;;;;;;;5048954;28;24498;-59
2021/12/07 07:41:40;;;;;;;24.50;19.42;;;;;;;;;;5043897;28;24569;-58
2021/12/07 07:44:05;;;;;;;23.63;19.55;;;;;;;;;;5058024;28;24963;-58
2021/12/07 07:46:30;;;;;;;23.50;18.40;;;;;;;;;;5052129;28;24431;-58
2021/12/07 07:51:53;;;;;;;26.65;20.20;;;;;;;;;;5029067;28;24458;-58
2021/12/07 07:54:18;;;;;;;24.60;19.70;;;;;;;;;;5056000;28;24979;-58
2021/12/07 07:56:44;;;;;;;24.60;20.50;;;;;;;;;;5053664;28;24410;-58
2021/12/07 07:59:09;;;;;;;27.20;20.47;;;;;;;;;;5051846;28;24411;-56
2021/12/07 08:01:34;;;;;;;26.50;20.50;;;;;;;;;;5043359;28;24575;-59
2021/12/07 08:04:00;;;;;;;24.90;19.48;;;;;;;;;;5055749;28;24484;-59
2021/12/07 08:06:25;;;;;;;21.43;17.43;;;;;;;;;;5049867;28;24522;-59
2021/12/07 08:08:51;;;;;;;22.20;18.37;;;;;;;;;;5053160;28;24433;-59
2021/12/07 08:11:16;;;;;;;23.33;18.80;;;;;;;;;;5047587;28;24469;-61
2021/12/07 08:13:41;;;;;;;22.93;18.53;;;;;;;;;;5049805;28;24449;-60
2021/12/07 08:16:15;;;;;;;23.98;18.45;;;;;;;;;;5050657;28;24900;-59
2021/12/07 08:18:40;;;;;;;24.70;19.85;;;;;;;;;;5049246;28;24990;-59
2021/12/07 08:21:07;;;;;;;23.90;19.20;;;;;;;;;;5045389;28;24431;-59
2021/12/07 08:23:32;;;;;;;23.95;19.10;;;;;;;;;;5052051;28;24429;-57
2021/12/07 08:25:57;;;;;;;23.23;18.65;;;;;;;;;;5046801;28;24415;-57
2021/12/07 08:28:22;;;;;;;23.48;18.00;;;;;;;;;;5050528;28;24426;-57
2021/12/07 08:30:48;;;;;;;22.83;18.90;;;;;;;;;;5051362;28;24433;-57
2021/12/07 08:33:14;;;;;;;22.10;18.65;;;;;;;;;;5062754;28;24512;-57
2021/12/07 08:35:39;;;;;;;22.10;18.50;;;;;;;;;;5065739;28;24418;-57
2021/12/07 08:38:05;;;;;;;24.00;18.73;;;;;;;;;;5060410;28;24426;-56
2021/12/07 08:40:31;;;;;;;23.53;19.20;;;;;;;;;;5062589;28;24506;-57
2021/12/07 08:42:56;;;;;;;23.83;18.98;;;;;;;;;;5061948;28;24418;-59
2021/12/07 08:45:23;;;;;;;22.48;19.02;;;;;;;;;;5062087;28;25252;-59
2021/12/07 08:47:48;;;;;;;23.23;20.37;;;;;;;;;;5061267;28;24489;-59
2021/12/07 08:50:15;;;;;;;25.73;20.17;;;;;;;;;;5067917;28;24413;-59
2021/12/07 08:52:41;;;;;;;23.65;18.48;;;;;;;;;;5062410;28;25069;-59
2021/12/07 09:00:29;;;;;;;23.87;18.50;;;;;;;;;;5053090;28;24425;-59
2021/12/07 09:02:55;;;;;;;25.43;19.60;;;;;;;;;;5065915;28;24395;-60
2021/12/07 09:05:20;;;;;;;26.23;20.07;;;;;;;;;;5063920;28;24833;-59
2021/12/07 09:07:45;;;;;;;22.23;19.67;;;;;;;;;;5061891;28;25177;-59
2021/12/07 09:10:11;;;;;;;23.43;18.90;;;;;;;;;;5057812;28;24972;-60
2021/12/07 09:12:36;;;;;;;25.13;20.20;;;;;;;;;;5070967;28;24495;-60
2021/12/07 09:15:02;;;;;;;28.02;20.70;;;;;;;;;;5064961;28;24434;-59
2021/12/07 09:17:27;;;;;;;22.92;19.05;;;;;;;;;;5063121;28;24414;-59
2021/12/07 09:19:52;;;;;;;26.77;22.33;;;;;;;;;;5059518;28;24411;-59
2021/12/07 09:22:18;;;;;;;23.40;19.10;;;;;;;;;;5063522;28;24464;-60
2021/12/07 09:24:43;;;;;;;24.87;19.77;;;;;;;;;;5075494;28;24414;-59
2021/12/07 09:27:08;;;;;;;24.53;20.17;;;;;;;;;;5067789;28;24422;-60
2021/12/07 09:29:34;;;;;;;23.37;18.90;;;;;;;;;;5061744;28;24407;-60
2021/12/07 09:32:00;;;;;;;23.23;19.10;;;;;;;;;;5047873;28;24433;-60
2021/12/07 09:34:25;;;;;;;26.55;20.95;;;;;;;;;;5061888;28;24470;-59
2021/12/07 09:36:51;;;;;;;24.20;19.57;;;;;;;;;;5062842;28;24969;-59
2021/12/07 09:39:17;;;;;;;24.20;19.27;;;;;;;;;;5061625;28;24472;-59
2021/12/07 09:41:42;;;;;;;26.15;19.48;;;;;;;;;;5053202;28;24458;-60
2021/12/07 09:44:07;;;;;;;27.35;20.95;;;;;;;;;;5058924;28;24425;-58
2021/12/07 09:46:33;;;;;;;24.23;19.83;;;;;;;;;;5058757;28;24518;-57
2021/12/07 09:48:58;;;;;;;24.50;19.63;;;;;;;;;;5060492;28;24476;-57
2021/12/07 09:51:24;;;;;;;27.33;20.90;;;;;;;;;;5049506;28;24422;-57
2021/12/07 09:53:50;;;;;;;24.27;19.67;;;;;;;;;;5042778;28;24963;-57
2021/12/07 09:56:18;;;;;;;25.00;20.30;;;;;;;;;;5050814;28;24986;-58
2021/12/07 09:58:43;;;;;;;27.30;21.05;;;;;;;;;;5058623;28;24410;-58
2021/12/07 10:01:09;;;;;;;27.33;20.23;;;;;;;;;;5053506;28;24423;-58
2021/12/07 10:03:35;;;;;;;26.45;21.40;;;;;;;;;;5052649;28;24972;-58
2021/12/07 10:06:00;;;;;;;26.30;21.03;;;;;;;;;;5056431;28;24514;-58
2021/12/07 10:08:25;;;;;;;26.00;21.03;;;;;;;;;;5061344;28;24434;-58
2021/12/07 10:10:54;;;;;;;26.03;20.03;;;;;;;;;;5058767;28;24430;-58
2021/12/07 10:13:21;;;;;;;27.95;22.20;;;;;;;;;;5061965;28;24427;-58
2021/12/07 10:15:56;;;;;;;30.48;22.48;;;;;;;;;;5062072;28;24423;-59
2021/12/07 10:18:23;;;;;;;25.55;20.67;;;;;;;;;;5062537;28;24407;-59
2021/12/07 10:20:52;;;;;;;30.52;22.35;;;;;;;;;;5060295;28;24496;-59
2021/12/07 10:23:20;;;;;;;27.02;22.38;;;;;;;;;;5060433;28;24413;-58
2021/12/07 10:25:59;;;;;;;25.15;20.27;;;;;;;;;;5064256;28;24395;-58
2021/12/07 10:28:24;;;;;;;28.17;21.38;;;;;;;;;;5061806;28;24472;-58
2021/12/07 10:30:49;;;;;;;28.98;22.58;;;;;;;;;;5060438;28;24403;-58
2021/12/07 10:33:16;;;;;;;30.25;23.20;;;;;;;;;;5058899;28;24511;-58
2021/12/07 10:35:41;;;;;;;27.58;21.08;;;;;;;;;;5063894;28;24457;-58
2021/12/07 10:38:14;;;;;;;28.97;22.40;;;;;;;;;;5063831;28;25011;-58
2021/12/07 10:40:59;;;;;;;32.58;24.58;;;;;;;;;;5063671;28;24490;-58
2021/12/07 10:43:42;;;;;;;24.20;21.05;;;;;;;;;;5044593;28;24465;-58
2021/12/07 10:46:26;;;;;;;27.77;22.02;;;;;;;;;;5059623;28;24411;-58
2021/12/07 10:49:06;;;;;;;27.55;21.77;;;;;;;;;;5064975;28;24410;-58
2021/12/07 10:51:31;;;;;;;25.38;21.10;;;;;;;;;;5054498;28;24894;-58
2021/12/07 10:53:57;;;;;;;28.63;22.77;;;;;;;;;;5066147;28;25307;-59
2021/12/07 10:56:32;;;;;;;27.70;21.77;;;;;;;;;;5067760;28;25052;-58
2021/12/07 10:58:58;;;;;;;28.45;21.80;;;;;;;;;;5054977;28;25030;-58
2021/12/07 11:01:40;;;;;;;29.02;22.38;;;;;;;;;;5061632;28;24461;-58
2021/12/07 11:04:21;;;;;;;26.48;21.75;;;;;;;;;;5059190;28;24491;-59
2021/12/07 11:07:04;;;;;;;28.85;22.65;;;;;;;;;;5047861;28;24415;-59
2021/12/07 11:09:29;;;;;;;30.13;23.98;;;;;;;;;;5053251;28;24960;-58
2021/12/07 11:12:08;;;;;;;29.37;22.87;;;;;;;;;;5063071;28;24486;-59
2021/12/07 11:14:51;;;;;;;29.27;23.10;;;;;;;;;;5053080;28;24437;-59
2021/12/07 11:17:19;;;;;;;27.55;22.13;;;;;;;;;;5053371;28;25065;-59
2021/12/07 11:19:44;;;;;;;26.48;21.50;;;;;;;;;;5054991;28;24418;-59
2021/12/07 11:22:11;;;;;;;28.63;22.57;;;;;;;;;;5058709;28;24415;-59
2021/12/07 11:24:38;;;;;;;30.92;22.08;;;;;;;;;;5060570;28;24415;-59
2021/12/07 11:29:56;;;;;;;27.60;21.03;;;;;;;;;;5060375;28;24464;-59
2021/12/07 11:32:21;;;;;;;30.70;23.38;;;;;;;;;;5059235;28;24978;-59
2021/12/07 11:34:46;;;;;;;25.00;20.20;;;;;;;;;;5060888;28;25003;-59
2021/12/07 11:37:12;;;;;;;29.23;22.13;;;;;;;;;;5062826;28;24403;-58
2021/12/07 11:39:49;;;;;;;29.00;23.40;;;;;;;;;;5057616;28;24414;-59
2021/12/07 11:42:22;;;;;;;30.30;23.85;;;;;;;;;;5054210;28;24779;-59
2021/12/07 11:44:47;;;;;;;29.00;22.33;;;;;;;;;;5056247;28;24421;-59
2021/12/07 11:47:12;;;;;;;28.63;22.92;;;;;;;;;;5059234;28;24402;-59
2021/12/07 11:49:38;;;;;;;28.43;22.70;;;;;;;;;;5059466;28;24522;-60
2021/12/07 11:52:04;;;;;;;30.73;24.03;;;;;;;;;;5053169;28;24994;-59
2021/12/07 11:54:32;;;;;;;30.00;23.30;;;;;;;;;;5062230;28;24988;-59
2021/12/07 11:56:58;;;;;;;29.88;23.55;;;;;;;;;;5060581;28;24453;-59
2021/12/07 11:59:23;;;;;;;30.58;24.25;;;;;;;;;;5056321;28;24506;-59
2021/12/07 12:01:49;;;;;;;31.03;24.60;;;;;;;;;;5055048;28;24544;-59
2021/12/07 12:04:16;;;;;;;30.08;24.48;;;;;;;;;;5053305;28;24972;-59
2021/12/07 12:06:43;;;;;;;31.33;24.63;;;;;;;;;;5055746;28;24423;-59
2021/12/07 12:09:08;;;;;;;30.05;24.05;;;;;;;;;;5049923;28;24497;-59
2021/12/07 12:11:39;;;;;;;33.20;24.40;;;;;;;;;;5056711;28;24453;-59
2021/12/07 12:14:10;;;;;;;27.98;22.30;;;;;;;;;;5051253;28;24522;-59
2021/12/07 12:16:41;;;;;;;29.33;23.55;;;;;;;;;;5045556;28;24548;-59
2021/12/07 12:19:19;;;;;;;31.40;22.25;;;;;;;;;;5053810;28;24951;-59
2021/12/07 12:21:56;;;;;;;29.80;24.23;;;;;;;;;;5054938;28;24453;-59
2021/12/07 12:24:45;;;;;;;33.22;24.95;;;;;;;;;;5054784;28;24442;-59
2021/12/07 12:27:13;;;;;;;31.70;23.73;;;;;;;;;;5059862;28;24472;-59
2021/12/07 12:29:40;;;;;;;29.83;23.48;;;;;;;;;;5057895;28;24422;-59
2021/12/07 12:32:06;;;;;;;30.40;23.08;;;;;;;;;;5056334;28;25223;-59
2021/12/07 12:34:33;;;;;;;32.90;25.10;;;;;;;;;;5054282;28;24500;-59
2021/12/07 12:37:08;;;;;;;28.50;21.77;;;;;;;;;;5048305;28;24805;-59
2021/12/07 12:39:39;;;;;;;28.63;23.55;;;;;;;;;;5050893;28;24494;-60
2021/12/07 12:42:05;;;;;;;32.08;24.88;;;;;;;;;;5052886;28;24517;-60
2021/12/07 12:44:33;;;;;;;33.10;25.47;;;;;;;;;;5052625;28;25049;-59
2021/12/07 12:46:58;;;;;;;30.23;24.73;;;;;;;;;;5047967;28;24442;-60
2021/12/07 12:49:35;;;;;;;32.07;25.90;;;;;;;;;;5059063;28;24407;-59
2021/12/07 12:52:00;;;;;;;30.98;25.00;;;;;;;;;;5055062;28;24476;-59
2021/12/07 12:54:25;;;;;;;32.22;24.48;;;;;;;;;;5048244;28;24434;-57
2021/12/07 12:56:50;;;;;;;31.85;24.75;;;;;;;;;;5056262;28;24752;-57
2021/12/07 12:59:18;;;;;;;31.42;23.92;;;;;;;;;;5061166;28;24446;-57
2021/12/07 13:01:44;;;;;;;31.90;23.35;;;;;;;;;;5051968;28;24551;-57
2021/12/07 13:04:11;;;;;;;30.67;23.38;;;;;;;;;;5043918;28;24419;-57
2021/12/07 13:06:44;;;;;;;30.80;24.05;;;;;;;;;;5055129;28;24414;-57
2021/12/07 13:09:20;;;;;;;28.60;23.65;;;;;;;;;;5047329;28;24422;-57
2021/12/07 13:11:52;;;;;;;33.60;25.40;;;;;;;;;;5047097;28;24418;-56
2021/12/07 13:14:24;;;;;;;34.20;25.77;;;;;;;;;;5047968;28;24435;-58
2021/12/07 13:16:59;;;;;;;32.13;24.10;;;;;;;;;;5052339;28;24408;-58
2021/12/07 13:19:25;;;;;;;31.25;24.90;;;;;;;;;;5047320;28;24991;-58
2021/12/07 13:21:50;;;;;;;32.90;25.87;;;;;;;;;;5048662;28;24443;-60
2021/12/07 13:24:20;;;;;;;30.80;23.77;;;;;;;;;;5045974;28;24514;-60
2021/12/07 13:26:51;;;;;;;32.40;24.40;;;;;;;;;;5044035;28;24852;-59
2021/12/07 13:29:18;;;;;;;29.98;23.48;;;;;;;;;;5047190;28;25009;-60
2021/12/07 13:31:44;;;;;;;32.28;25.45;;;;;;;;;;5049087;28;24656;-59
2021/12/07 13:34:10;;;;;;;30.77;24.15;;;;;;;;;;5048481;28;24812;-59
2021/12/07 13:36:45;;;;;;;29.33;22.85;;;;;;;;;;5045355;28;25046;-60
2021/12/07 13:39:10;;;;;;;29.17;24.40;;;;;;;;;;5061663;28;24406;-60
2021/12/07 13:41:45;;;;;;;30.30;23.92;;;;;;;;;;5057132;28;24414;-60
2021/12/07 13:44:10;;;;;;;27.80;23.50;;;;;;;;;;5057249;28;24426;-59
2021/12/07 13:46:35;;;;;;;32.17;24.40;;;;;;;;;;5057901;28;24422;-59
2021/12/07 13:49:08;;;;;;;28.20;22.15;;;;;;;;;;5059508;28;25033;-59
2021/12/07 13:51:34;;;;;;;29.93;23.60;;;;;;;;;;5059037;28;24410;-59
2021/12/07 13:54:01;;;;;;;30.30;24.48;;;;;;;;;;5062816;28;24563;-59
2021/12/07 13:56:26;;;;;;;30.73;25.33;;;;;;;;;;5060991;28;24415;-60
2021/12/07 13:58:59;;;;;;;28.70;24.00;;;;;;;;;;5053724;28;24437;-60
2021/12/07 14:01:25;;;;;;;33.35;26.55;;;;;;;;;;5041753;28;24425;-60
2021/12/07 14:03:50;;;;;;;29.90;23.33;;;;;;;;;;5056315;28;24419;-59
2021/12/07 14:06:16;;;;;;;30.33;22.53;;;;;;;;;;5049753;28;24434;-59
2021/12/07 14:08:41;;;;;;;31.13;24.10;;;;;;;;;;5057783;28;24863;-59
2021/12/07 14:11:06;;;;;;;32.78;23.90;;;;;;;;;;5058984;28;24390;-58
2021/12/07 14:13:32;;;;;;;31.07;23.00;;;;;;;;;;5057455;28;24477;-59
2021/12/07 14:15:57;;;;;;;32.17;24.97;;;;;;;;;;5046432;28;24468;-59
2021/12/07 14:18:26;;;;;;;31.13;24.40;;;;;;;;;;5062131;28;24431;-58
2021/12/07 14:20:54;;;;;;;31.48;25.33;;;;;;;;;;5049461;28;24427;-58
2021/12/07 14:23:19;;;;;;;31.60;24.98;;;;;;;;;;5046098;28;24479;-59
2021/12/07 14:25:49;;;;;;;30.93;25.30;;;;;;;;;;5049311;28;24422;-59
2021/12/07 14:28:34;;;;;;;35.13;28.23;;;;;;;;;;5053934;28;24433;-58
2021/12/07 14:31:05;;;;;;;29.17;23.35;;;;;;;;;;5057675;28;24415;-59
2021/12/07 14:33:34;;;;;;;29.20;24.10;;;;;;;;;;5051947;28;24473;-58
2021/12/07 14:36:00;;;;;;;31.92;24.55;;;;;;;;;;5063986;28;24767;-58
2021/12/07 14:38:28;;;;;;;30.97;25.67;;;;;;;;;;5058309;28;24407;-58
2021/12/07 14:40:54;;;;;;;27.88;24.33;;;;;;;;;;5057538;28;24988;-58
2021/12/07 14:43:19;;;;;;;32.53;26.27;;;;;;;;;;5061228;28;24456;-58
2021/12/07 14:45:44;;;;;;;29.63;23.80;;;;;;;;;;5049041;28;24412;-58
2021/12/07 14:48:09;;;;;;;32.20;23.77;;;;;;;;;;5042298;28;24407;-59
2021/12/07 14:50:34;;;;;;;32.58;24.35;;;;;;;;;;5039263;28;24516;-58
2021/12/07 14:53:00;;;;;;;31.70;23.70;;;;;;;;;;5038051;28;24450;-59
2021/12/07 14:55:25;;;;;;;31.02;25.35;;;;;;;;;;5039310;28;24485;-58
2021/12/07 14:57:50;;;;;;;32.28;23.45;;;;;;;;;;5057760;28;24475;-59
2021/12/07 15:00:16;;;;;;;28.90;22.90;;;;;;;;;;5065130;28;24717;-58
2021/12/07 15:02:42;;;;;;;32.80;24.48;;;;;;;;;;5067006;28;25157;-58
2021/12/07 15:05:09;;;;;;;33.13;24.95;;;;;;;;;;5064916;28;24463;-59
2021/12/07 15:07:35;;;;;;;27.98;22.30;;;;;;;;;;5046545;28;25098;-58
2021/12/07 15:10:04;;;;;;;33.40;24.98;;;;;;;;;;5051847;28;24992;-58
2021/12/07 15:12:29;;;;;;;36.50;24.95;;;;;;;;;;5055131;28;24768;-58
2021/12/07 15:14:58;;;;;;;30.48;23.77;;;;;;;;;;5055910;28;24428;-57
2021/12/07 15:17:23;;;;;;;32.97;24.60;;;;;;;;;;5054406;28;24456;-58
2021/12/07 15:19:48;;;;;;;32.53;24.35;;;;;;;;;;5065752;28;24488;-57
2021/12/07 15:22:13;;;;;;;32.83;26.40;;;;;;;;;;5055796;28;24422;-58
2021/12/07 15:24:39;;;;;;;34.93;25.23;;;;;;;;;;5059075;28;24434;-58
2021/12/07 15:27:04;;;;;;;31.80;24.67;;;;;;;;;;5049247;28;25096;-58
2021/12/07 15:29:31;;;;;;;31.27;23.83;;;;;;;;;;5045547;28;24515;-58
2021/12/07 15:31:58;;;;;;;34.23;25.80;;;;;;;;;;5050745;28;24430;-58
2021/12/07 15:34:25;;;;;;;35.40;27.27;;;;;;;;;;5060417;28;24582;-58
2021/12/07 15:36:57;;;;;;;31.30;25.10;;;;;;;;;;5061413;28;24480;-58
2021/12/07 15:39:24;;;;;;;31.55;24.40;;;;;;;;;;5053912;28;24422;-57
2021/12/07 15:41:51;;;;;;;32.78;25.52;;;;;;;;;;5050997;28;24521;-57
2021/12/07 15:44:21;;;;;;;34.00;27.50;;;;;;;;;;5054435;28;24414;-57
2021/12/07 15:46:49;;;;;;;33.47;25.50;;;;;;;;;;5057954;28;24975;-57
2021/12/07 15:49:21;;;;;;;31.95;26.05;;;;;;;;;;5053082;28;24422;-58
2021/12/07 15:51:48;;;;;;;35.70;28.00;;;;;;;;;;5055974;28;24429;-58
2021/12/07 15:54:13;;;;;;;33.92;27.10;;;;;;;;;;5048206;28;24541;-60